Terminal Aerodrome Forecast
Issued by NWS Bismarck, ND

Home | Current Version | Previous Version | Text Only | Print | Product List | Glossary On
Versions: 1 2 3 4 5 6 7 8 9 10 11 12 13 14
000
FTUS43 KBIS 222327
TAFBIS
TAF
KBIS 222327Z 2300/2324 13007KT P6SM VCTS SCT060CB BKN120
      TEMPO 2301/2303 VRB20G30KT 3SM TSRA BKN060CB OVC100
     FM230500 VRB04KT P6SM SCT060 BKN250
     FM231800 11014G23KT P6SM SCT060 BKN120
     FM232100 13015G24KT P6SM VCTS SCT045CB BKN070=

USA.gov is the U.S. government's official web portal to all federal, state and local government web resources and services.